Time;durP1;ratioP1;P1;durP2;ratioP2;P2;SDS_P1;SDS_P2;PMS_P1;PMS_P2;Temp;Humidity;BMP_temperature;BMP_pressure;BME280_temperature;BME280_humidity;BME280_pressure;Samples;Min_cycle;Max_cycle;Signal;HPM_P1;HPM_P2
2022/06/26 00:02:05;;;;;;;6.47;3.73;;;;;;;21.76;53.19;99932.63;4212180;28;20240;-65
2022/06/26 00:04:32;;;;;;;5.57;3.93;;;;;;;21.76;53.09;99930.75;4209416;28;20258;-66
2022/06/26 00:07:00;;;;;;;6.38;3.67;;;;;;;21.68;53.65;99931.06;4227246;28;20850;-64
2022/06/26 00:09:28;;;;;;;7.77;4.00;;;;;;;21.62;53.86;99937.41;4204036;28;20333;-65
2022/06/26 00:11:55;;;;;;;8.02;4.15;;;;;;;21.61;54.09;99935.75;4213079;28;20231;-66
2022/06/26 00:14:22;;;;;;;8.97;4.20;;;;;;;21.57;54.19;99935.41;4201777;28;20240;-64
2022/06/26 00:16:49;;;;;;;6.07;3.90;;;;;;;21.61;54.23;99938.44;4211110;28;20229;-63
2022/06/26 00:19:16;;;;;;;7.93;4.00;;;;;;;21.54;54.50;99935.00;4214177;28;20237;-64
2022/06/26 00:21:43;;;;;;;9.00;3.90;;;;;;;21.46;54.34;99945.09;4207159;28;20317;-65
2022/06/26 00:24:09;;;;;;;8.90;4.20;;;;;;;21.37;55.47;99941.03;4206163;28;20322;-67
2022/06/26 00:26:36;;;;;;;6.97;4.43;;;;;;;21.37;55.44;99934.78;4202951;28;20252;-64
2022/06/26 00:29:02;;;;;;;10.00;4.13;;;;;;;21.41;55.47;99941.44;4223365;28;20310;-65
2022/06/26 00:31:29;;;;;;;7.00;4.20;;;;;;;21.39;55.22;99943.50;4211327;28;20655;-65
2022/06/26 00:33:55;;;;;;;8.63;4.37;;;;;;;21.27;55.51;99943.47;4217659;28;20240;-65
2022/06/26 00:36:22;;;;;;;10.03;4.70;;;;;;;21.25;55.66;99948.28;4204502;28;20234;-68
2022/06/26 00:38:49;;;;;;;8.70;4.73;;;;;;;21.20;55.57;99948.13;4218314;28;22068;-68
2022/06/26 00:41:15;;;;;;;7.40;4.27;;;;;;;21.26;55.79;99949.94;4192244;28;20271;-68
2022/06/26 00:43:42;;;;;;;7.80;3.90;;;;;;;21.21;56.33;99949.78;4203728;28;20765;-68
2022/06/26 00:46:08;;;;;;;10.97;4.20;;;;;;;21.23;55.65;99950.38;4215071;28;21410;-66
2022/06/26 00:48:35;;;;;;;7.27;3.97;;;;;;;21.18;55.91;99952.94;4208958;28;20231;-66
2022/06/26 00:51:02;;;;;;;6.60;4.10;;;;;;;21.12;56.34;99949.28;4251381;28;20302;-69
2022/06/26 00:53:29;;;;;;;7.33;4.10;;;;;;;21.12;56.20;99951.97;4218409;28;20689;-66
2022/06/26 00:55:56;;;;;;;6.57;4.13;;;;;;;21.07;56.08;99946.38;4208738;28;20601;-67
2022/06/26 00:58:22;;;;;;;6.03;4.00;;;;;;;20.99;56.65;99950.22;4197819;28;20249;-67
2022/06/26 01:00:49;;;;;;;12.37;4.50;;;;;;;21.03;56.03;99954.16;4220407;28;20268;-68
2022/06/26 01:03:15;;;;;;;8.07;4.43;;;;;;;21.03;55.84;99964.16;4196918;28;20333;-67
2022/06/26 01:05:42;;;;;;;8.93;4.27;;;;;;;21.01;56.21;99967.06;4192751;28;20903;-66
2022/06/26 01:08:09;;;;;;;7.63;4.10;;;;;;;20.94;56.72;99957.38;4201431;28;20358;-67
2022/06/26 01:10:38;;;;;;;8.87;4.37;;;;;;;20.84;56.77;99961.44;4194157;28;21401;-68
2022/06/26 01:13:06;;;;;;;8.67;4.20;;;;;;;20.85;56.73;99956.84;4194884;28;20704;-68
2022/06/26 01:15:34;;;;;;;10.40;4.77;;;;;;;20.83;57.23;99957.06;4197477;28;20236;-68
2022/06/26 01:18:01;;;;;;;7.97;4.13;;;;;;;20.80;57.19;99956.69;4207810;28;20242;-68
2022/06/26 01:20:27;;;;;;;7.93;4.43;;;;;;;20.70;57.30;99964.47;4200700;28;20382;-68
2022/06/26 01:23:04;;;;;;;10.33;4.63;;;;;;;20.69;57.85;99962.84;4209558;28;20244;-65
2022/06/26 01:26:00;;;;;;;7.80;4.20;;;;;;;20.62;58.13;99963.72;4202118;28;20319;-68
2022/06/26 01:28:26;;;;;;;14.47;4.60;;;;;;;20.61;58.08;99963.94;4200750;28;21749;-69
2022/06/26 01:30:53;;;;;;;7.07;4.57;;;;;;;20.57;58.04;99963.56;4199668;28;20237;-66
2022/06/26 01:33:20;;;;;;;6.90;4.67;;;;;;;20.54;58.09;99963.97;4213139;28;20319;-64
2022/06/26 01:35:46;;;;;;;11.90;4.83;;;;;;;20.58;58.45;99967.94;4201751;28;20233;-67
2022/06/26 01:38:15;;;;;;;7.07;4.73;;;;;;;20.50;58.30;99961.94;4195595;28;21654;-68
2022/06/26 01:40:43;;;;;;;7.33;4.33;;;;;;;20.48;58.34;99964.03;4197952;28;20439;-69
2022/06/26 01:43:11;;;;;;;8.67;4.60;;;;;;;20.47;58.46;99967.81;4191389;28;20236;-65
2022/06/26 01:45:42;;;;;;;7.00;4.17;;;;;;;20.45;58.23;99970.72;4198269;28;20320;-68
2022/06/26 01:48:09;;;;;;;10.90;4.60;;;;;;;20.43;58.65;99978.22;4194974;28;20312;-68
2022/06/26 01:50:36;;;;;;;8.43;4.67;;;;;;;20.42;58.86;99979.28;4201986;28;20295;-66
2022/06/26 01:53:03;;;;;;;8.83;4.70;;;;;;;20.41;58.86;99974.91;4188225;28;20233;-66
2022/06/26 01:55:29;;;;;;;7.80;4.30;;;;;;;20.45;58.87;99984.22;4187118;28;20226;-66
2022/06/26 01:57:56;;;;;;;10.73;4.73;;;;;;;20.39;58.90;99979.69;4209445;28;20329;-65
2022/06/26 02:00:22;;;;;;;9.67;4.90;;;;;;;20.35;59.36;99984.72;4221183;28;20250;-67
2022/06/26 02:02:49;;;;;;;10.23;4.57;;;;;;;20.35;59.02;99989.31;4219148;28;20444;-66
2022/06/26 02:05:15;;;;;;;8.70;4.90;;;;;;;20.34;59.31;99993.03;4222360;28;20259;-67
2022/06/26 02:07:42;;;;;;;8.53;4.80;;;;;;;20.25;59.62;99989.78;4222964;28;20343;-67
2022/06/26 02:15:39;;;;;;;6.57;4.80;;;;;;;20.17;59.54;99993.59;4213301;28;21406;-67
2022/06/26 02:18:06;;;;;;;7.27;4.47;;;;;;;20.21;59.78;99991.28;4208797;28;20240;-66
2022/06/26 02:20:33;;;;;;;13.63;5.13;;;;;;;20.20;59.67;99995.84;4220447;28;21006;-66
2022/06/26 02:23:00;;;;;;;14.20;5.00;;;;;;;20.20;59.55;99995.84;4195710;28;21720;-66
2022/06/26 02:25:27;;;;;;;10.70;4.80;;;;;;;20.19;59.75;99993.38;4206079;28;20304;-66
2022/06/26 02:27:53;;;;;;;8.80;4.87;;;;;;;20.18;59.81;99997.09;4203278;28;20228;-67
2022/06/26 02:30:20;;;;;;;9.50;4.60;;;;;;;20.15;60.00;99994.84;4215011;28;20244;-68
2022/06/26 02:32:46;;;;;;;9.77;5.17;;;;;;;20.16;59.89;100001.94;4199982;28;20240;-66
2022/06/26 02:35:13;;;;;;;9.20;5.13;;;;;;;20.11;59.68;100002.56;4211632;28;20240;-68
2022/06/26 02:37:39;;;;;;;9.07;5.67;;;;;;;20.10;59.67;100003.59;4209708;28;21812;-68
2022/06/26 02:40:07;;;;;;;10.07;5.43;;;;;;;20.12;59.93;99998.81;4220496;28;20334;-68
2022/06/26 02:42:33;;;;;;;9.97;5.33;;;;;;;20.13;59.65;99999.63;4212723;28;20228;-66
2022/06/26 02:45:00;;;;;;;10.00;4.97;;;;;;;20.09;59.96;100006.50;4229508;28;20233;-67
2022/06/26 02:47:27;;;;;;;9.02;5.10;;;;;;;20.10;59.41;100009.00;4209908;28;21782;-66
2022/06/26 02:49:53;;;;;;;7.87;5.00;;;;;;;20.06;60.06;100005.06;4201594;28;23120;-67
2022/06/26 02:52:20;;;;;;;10.60;5.03;;;;;;;20.10;59.54;100011.72;4213900;28;20592;-67
2022/06/26 02:54:47;;;;;;;8.83;5.00;;;;;;;20.18;59.69;100002.50;4230289;28;22392;-67
2022/06/26 02:57:13;;;;;;;7.80;5.00;;;;;;;20.20;59.82;100012.03;4218570;28;21763;-68
2022/06/26 02:59:40;;;;;;;7.57;4.87;;;;;;;20.21;59.74;100018.31;4203636;28;20233;-67
2022/06/26 03:02:07;;;;;;;11.67;5.33;;;;;;;20.14;59.46;100012.13;4196091;28;20545;-65
2022/06/26 03:04:33;;;;;;;10.17;5.63;;;;;;;20.07;60.03;100014.84;4208216;28;20371;-65
2022/06/26 03:07:00;;;;;;;9.70;4.57;;;;;;;20.08;59.99;100016.50;4204819;28;20240;-66
2022/06/26 03:09:27;;;;;;;10.23;4.90;;;;;;;20.07;59.77;100027.53;4193209;28;21113;-67
2022/06/26 03:11:53;;;;;;;5.77;4.63;;;;;;;20.12;59.51;100023.13;4207488;28;20236;-68
2022/06/26 03:14:20;;;;;;;11.17;4.97;;;;;;;20.13;59.75;100022.06;4207301;28;20461;-67
2022/06/26 03:16:46;;;;;;;8.97;4.80;;;;;;;20.31;58.61;100025.91;4195383;28;20453;-68
2022/06/26 03:19:13;;;;;;;9.17;4.97;;;;;;;20.33;58.41;100029.22;4193534;28;20245;-69
2022/06/26 03:21:40;;;;;;;11.60;5.30;;;;;;;20.29;59.08;100025.31;4204074;28;20308;-66
2022/06/26 03:24:06;;;;;;;8.20;5.20;;;;;;;20.27;59.06;100027.41;4205048;28;20248;-68
2022/06/26 03:26:37;;;;;;;9.13;5.30;;;;;;;20.27;59.22;100028.22;4197694;28;20248;-68
2022/06/26 03:29:07;;;;;;;10.93;5.13;;;;;;;20.31;58.75;100029.44;4187636;28;20240;-65
2022/06/26 03:31:33;;;;;;;10.47;4.93;;;;;;;20.40;58.13;100032.72;4199886;28;21088;-66
2022/06/26 03:34:00;;;;;;;9.43;5.10;;;;;;;20.44;58.56;100033.94;4195802;28;20245;-67
2022/06/26 03:36:28;;;;;;;7.73;5.27;;;;;;;20.45;58.06;100035.59;4200458;28;20237;-69
2022/06/26 03:38:55;;;;;;;8.10;4.83;;;;;;;20.54;57.86;100039.66;4202552;28;20282;-67
2022/06/26 03:41:22;;;;;;;10.60;5.03;;;;;;;20.59;58.13;100037.16;4187207;28;20463;-67
2022/06/26 03:43:49;;;;;;;6.70;4.70;;;;;;;20.61;58.50;100040.47;4203210;28;21330;-65
2022/06/26 03:46:15;;;;;;;7.47;4.50;;;;;;;20.69;57.84;100041.25;4205975;28;20256;-66
2022/06/26 03:48:42;;;;;;;8.17;4.60;;;;;;;20.77;58.14;100054.50;4209988;28;20273;-68
2022/06/26 03:51:09;;;;;;;6.27;4.53;;;;;;;20.80;57.95;100048.66;4192448;28;21729;-67
2022/06/26 03:53:36;;;;;;;9.93;5.00;;;;;;;20.83;57.10;100050.91;4200429;28;20435;-66
2022/06/26 03:56:03;;;;;;;11.30;4.40;;;;;;;20.97;56.97;100044.31;4202986;28;20324;-69
2022/06/26 03:58:30;;;;;;;10.17;5.00;;;;;;;21.05;56.30;100051.34;4189438;28;20240;-67
2022/06/26 04:00:56;;;;;;;9.30;4.80;;;;;;;21.11;57.19;100053.13;4183059;28;20241;-67
2022/06/26 04:03:23;;;;;;;7.77;4.60;;;;;;;21.21;56.02;100058.00;4194965;28;20396;-65
2022/06/26 04:05:50;;;;;;;8.10;4.70;;;;;;;21.20;56.47;100061.78;4196981;28;20272;-67
2022/06/26 04:08:16;;;;;;;12.70;4.83;;;;;;;21.30;55.46;100059.38;4190032;28;20292;-66
2022/06/26 04:10:43;;;;;;;10.13;4.87;;;;;;;21.35;55.63;100062.22;4198398;28;20236;-66
2022/06/26 04:13:11;;;;;;;10.90;5.37;;;;;;;21.52;55.35;100069.78;4191258;28;21676;-67
2022/06/26 04:15:39;;;;;;;9.53;4.57;;;;;;;21.68;54.52;100066.47;4198860;28;20364;-67
2022/06/26 04:18:06;;;;;;;11.83;5.07;;;;;;;21.61;54.29;100077.41;4189794;28;20249;-65
2022/06/26 04:20:33;;;;;;;7.30;4.20;;;;;;;21.69;54.15;100076.25;4198209;28;20510;-66
2022/06/26 04:23:08;;;;;;;9.40;5.00;;;;;;;21.74;53.82;100072.88;4187980;28;20241;-67
2022/06/26 04:25:36;;;;;;;13.50;5.37;;;;;;;21.87;53.45;100078.97;4201322;28;20229;-69
2022/06/26 04:28:05;;;;;;;8.80;4.97;;;;;;;22.06;53.09;100081.63;4198103;28;20235;-66
2022/06/26 04:30:32;;;;;;;10.67;4.63;;;;;;;22.10;52.80;100083.66;4192986;28;20546;-69
2022/06/26 04:32:58;;;;;;;8.87;4.67;;;;;;;22.22;52.81;100089.16;4214225;28;20861;-68
2022/06/26 04:35:25;;;;;;;9.67;5.07;;;;;;;22.35;52.03;100088.13;4203700;28;21282;-65
2022/06/26 04:37:51;;;;;;;10.30;5.23;;;;;;;22.59;51.32;100091.72;4186794;28;20239;-65
2022/06/26 04:40:18;;;;;;;7.73;4.60;;;;;;;22.75;51.08;100093.75;4183732;28;21575;-67
2022/06/26 04:42:45;;;;;;;10.73;4.50;;;;;;;22.72;50.21;100088.81;4195072;28;20234;-66
2022/06/26 04:45:12;;;;;;;11.47;5.00;;;;;;;22.69;50.00;100094.69;4193478;28;20512;-67
2022/06/26 04:47:39;;;;;;;10.10;4.80;;;;;;;22.74;50.43;100086.69;4195669;28;20463;-68
2022/06/26 04:50:07;;;;;;;8.85;4.57;;;;;;;22.91;50.52;100096.84;4194537;28;20236;-66
2022/06/26 04:52:33;;;;;;;7.60;4.63;;;;;;;22.93;50.14;100097.44;4205600;28;20663;-67
2022/06/26 04:55:00;;;;;;;11.93;5.17;;;;;;;22.94;49.51;100108.06;4194909;28;22394;-67
2022/06/26 04:57:26;;;;;;;9.67;4.70;;;;;;;22.92;49.51;100104.75;4189014;28;20574;-69
2022/06/26 04:59:53;;;;;;;9.67;4.97;;;;;;;22.97;49.22;100106.78;4192254;28;22178;-67
2022/06/26 05:02:20;;;;;;;8.50;4.60;;;;;;;22.87;49.31;100112.75;4191462;28;21175;-65
2022/06/26 05:04:47;;;;;;;8.30;4.67;;;;;;;23.00;48.95;100110.94;4195625;28;20237;-67
2022/06/26 05:07:14;;;;;;;8.97;4.43;;;;;;;22.95;49.04;100100.75;4194315;28;20631;-50
2022/06/26 05:09:40;;;;;;;7.53;4.20;;;;;;;23.28;48.66;100110.25;4194753;28;20322;-46
2022/06/26 05:12:07;;;;;;;8.05;4.07;;;;;;;23.28;48.25;100112.94;4205492;28;20839;-66
2022/06/26 05:14:33;;;;;;;6.28;4.13;;;;;;;23.51;47.47;100112.13;4185864;28;20229;-65
2022/06/26 05:17:00;;;;;;;8.35;3.97;;;;;;;23.49;47.09;100123.19;4193387;28;20238;-66
2022/06/26 05:19:27;;;;;;;8.07;4.05;;;;;;;23.72;46.82;100119.63;4175418;28;21937;-71
2022/06/26 05:21:55;;;;;;;8.57;4.30;;;;;;;23.87;47.06;100126.47;4185287;28;20250;-65
2022/06/26 05:24:21;;;;;;;7.33;4.43;;;;;;;24.18;45.57;100136.06;4195615;28;25475;-66
2022/06/26 05:26:48;;;;;;;7.35;4.20;;;;;;;24.72;42.91;100139.25;4200501;28;20237;-66
2022/06/26 05:29:14;;;;;;;8.60;3.90;;;;;;;25.01;42.51;100142.75;4186178;28;20603;-65
2022/06/26 05:31:41;;;;;;;6.72;3.80;;;;;;;25.40;41.37;100139.28;4190439;28;22233;-66
2022/06/26 05:34:08;;;;;;;7.70;4.20;;;;;;;25.80;40.17;100138.19;4196263;28;20278;-66
2022/06/26 05:36:34;;;;;;;10.73;3.92;;;;;;;26.07;39.46;100144.56;4190899;28;23478;-65
2022/06/26 05:39:01;;;;;;;9.57;3.80;;;;;;;26.40;38.92;100152.81;4197833;28;20264;-66
2022/06/26 05:41:28;;;;;;;8.52;4.00;;;;;;;27.04;36.82;100160.25;4196826;28;20496;-65
2022/06/26 05:43:54;;;;;;;11.40;3.65;;;;;;;27.70;35.77;100170.88;4223542;28;20294;-46
2022/06/26 05:46:21;;;;;;;7.00;3.97;;;;;;;27.94;35.01;100179.50;4199229;28;21757;-70
2022/06/26 05:48:48;;;;;;;6.60;3.35;;;;;;;28.52;33.29;100182.19;4191344;28;21754;-65
2022/06/26 05:51:14;;;;;;;5.65;3.17;;;;;;;28.97;32.84;100178.66;4212752;28;20232;-72
2022/06/26 05:53:41;;;;;;;8.20;3.60;;;;;;;29.08;32.34;100190.50;4192359;28;20387;-64
2022/06/26 05:56:08;;;;;;;5.22;3.08;;;;;;;29.35;31.68;100189.38;4180263;28;20300;-63
2022/06/26 05:58:34;;;;;;;10.15;3.55;;;;;;;29.61;31.21;100198.38;4194445;28;25611;-66
2022/06/26 06:01:01;;;;;;;6.00;3.22;;;;;;;30.13;30.48;100193.56;4195193;28;20405;-65
2022/06/26 06:03:28;;;;;;;4.45;2.90;;;;;;;30.18;29.43;100197.13;4212567;28;20268;-67
2022/06/26 06:05:54;;;;;;;4.82;3.15;;;;;;;30.58;29.56;100198.06;4206695;28;22586;-66
2022/06/26 06:08:21;;;;;;;8.43;3.22;;;;;;;31.17;28.63;100217.44;4195784;28;20237;-66
2022/06/26 06:10:47;;;;;;;9.75;3.42;;;;;;;31.54;27.39;100223.16;4183325;28;22212;-68
2022/06/26 06:13:14;;;;;;;5.57;3.10;;;;;;;32.05;27.45;100221.00;4191982;28;20241;-67
2022/06/26 06:15:41;;;;;;;4.80;2.92;;;;;;;32.61;25.51;100223.03;4184016;28;21569;-67
2022/06/26 06:18:07;;;;;;;8.60;3.33;;;;;;;33.42;24.49;100233.91;4190193;28;20294;-67
2022/06/26 06:20:34;;;;;;;5.47;3.30;;;;;;;34.29;23.82;100234.22;4201192;28;20561;-69
2022/06/26 06:23:21;;;;;;;5.18;3.10;;;;;;;35.21;22.76;100240.44;4212250;28;20666;-67
2022/06/26 06:25:47;;;;;;;8.70;3.15;;;;;;;35.15;22.34;100248.06;4202371;28;21771;-69
2022/06/26 06:28:14;;;;;;;6.85;2.70;;;;;;;35.22;21.16;100251.19;4191951;28;21656;-67
2022/06/26 06:30:40;;;;;;;6.15;2.80;;;;;;;35.72;21.13;100251.03;4204288;28;21774;-67
2022/06/26 06:33:07;;;;;;;5.10;2.63;;;;;;;35.78;20.92;100248.09;4201858;28;22633;-64
2022/06/26 06:35:34;;;;;;;5.35;3.28;;;;;;;34.84;22.20;100243.25;4228220;28;20243;-66
2022/06/26 06:38:00;;;;;;;7.47;3.20;;;;;;;34.84;21.75;100242.41;4217504;28;20235;-65
2022/06/26 06:40:27;;;;;;;4.10;2.95;;;;;;;34.96;21.33;100244.63;4203026;28;21184;-68
2022/06/26 06:42:54;;;;;;;3.40;2.75;;;;;;;34.50;22.23;100252.00;4200009;28;20239;-66
2022/06/26 06:45:21;;;;;;;4.38;2.95;;;;;;;35.16;21.55;100254.41;4196596;28;20609;-67
2022/06/26 06:47:48;;;;;;;8.25;2.80;;;;;;;36.14;20.53;100265.38;4202851;28;23607;-68
2022/06/26 06:50:14;;;;;;;4.15;2.97;;;;;;;36.66;19.96;100275.81;4201396;28;20230;-66
2022/06/26 06:52:41;;;;;;;6.22;2.72;;;;;;;35.96;20.33;100265.63;4211815;28;20226;-69
2022/06/26 06:55:08;;;;;;;4.55;2.80;;;;;;;36.45;20.14;100272.00;4215464;28;20236;-66
2022/06/26 06:57:35;;;;;;;6.57;2.50;;;;;;;36.65;19.47;100270.59;4209646;28;22943;-65
2022/06/26 07:00:04;;;;;;;9.02;3.20;;;;;;;36.89;19.61;100275.66;4195061;28;25489;-67
2022/06/26 07:02:31;;;;;;;6.70;3.30;;;;;;;37.41;18.64;100280.38;4192625;28;20637;-67
2022/06/26 07:04:58;;;;;;;7.20;2.83;;;;;;;38.42;17.73;100275.13;4217795;28;20244;-66
2022/06/26 07:07:25;;;;;;;8.45;2.83;;;;;;;38.07;17.19;100274.50;4206213;28;22065;-67
2022/06/26 07:09:52;;;;;;;9.77;3.45;;;;;;;38.49;16.70;100274.63;4227495;28;20238;-65
2022/06/26 07:12:18;;;;;;;3.67;2.47;;;;;;;38.41;16.73;100267.94;4197858;28;20306;-66
2022/06/26 07:14:45;;;;;;;4.43;2.50;;;;;;;38.07;17.07;100280.06;4198489;28;22082;-66
2022/06/26 07:17:13;;;;;;;3.97;2.40;;;;;;;35.84;19.33;100263.47;4197012;28;20649;-67
2022/06/26 07:19:41;;;;;;;5.82;2.88;;;;;;;35.12;19.71;100253.41;4194461;28;20497;-68
2022/06/26 07:22:07;;;;;;;7.03;2.70;;;;;;;35.09;19.69;100249.28;4230007;28;21214;-67
2022/06/26 07:24:34;;;;;;;8.70;2.55;;;;;;;33.78;21.71;100244.31;4190278;28;20296;-66
2022/06/26 07:27:05;;;;;;;8.02;2.50;;;;;;;33.75;21.93;100240.22;4187497;28;20248;-67
2022/06/26 07:29:32;;;;;;;4.88;2.50;;;;;;;32.96;22.42;100240.16;4210735;28;20244;-66
2022/06/26 07:31:58;;;;;;;6.13;2.47;;;;;;;32.00;23.79;100240.31;4237659;28;20302;-69
2022/06/26 07:34:26;;;;;;;10.10;3.03;;;;;;;32.10;23.53;100234.69;4202954;28;21060;-67
2022/06/26 07:36:53;;;;;;;6.32;2.63;;;;;;;32.16;23.72;100239.84;4206120;28;25429;-68
2022/06/26 07:39:20;;;;;;;6.45;2.40;;;;;;;31.20;24.81;100225.09;4203411;28;20256;-68
2022/06/26 07:41:48;;;;;;;4.65;2.28;;;;;;;30.72;25.50;100217.47;4197788;28;20246;-68
2022/06/26 07:44:14;;;;;;;9.00;3.00;;;;;;;30.57;26.00;100226.59;4205616;28;20233;-69
2022/06/26 07:46:42;;;;;;;6.47;2.70;;;;;;;30.62;25.75;100226.56;4194907;28;21280;-69
2022/06/26 07:49:09;;;;;;;8.15;2.67;;;;;;;31.51;24.64;100236.66;4233992;28;22130;-70
2022/06/26 07:51:36;;;;;;;6.85;2.88;;;;;;;32.01;25.25;100237.28;4189648;28;20237;-72
2022/06/26 07:54:03;;;;;;;6.53;2.78;;;;;;;32.13;24.15;100236.88;4207090;28;20223;-69
2022/06/26 07:56:30;;;;;;;7.40;2.70;;;;;;;32.26;24.28;100230.63;4215401;28;22186;-58
2022/06/26 07:58:57;;;;;;;8.57;2.90;;;;;;;31.80;24.81;100231.16;4206693;28;20233;-55
2022/06/26 08:01:23;;;;;;;6.70;2.50;;;;;;;31.27;25.34;100229.16;4209479;28;22534;-65
2022/06/26 08:03:50;;;;;;;4.82;2.47;;;;;;;31.18;26.00;100224.56;4213753;28;22275;-68
2022/06/26 08:06:17;;;;;;;3.15;2.38;;;;;;;30.87;25.91;100220.13;4210277;28;21157;-67
2022/06/26 08:08:43;;;;;;;5.60;2.50;;;;;;;31.20;25.46;100223.16;4224037;28;20233;-66
2022/06/26 08:11:10;;;;;;;4.55;2.20;;;;;;;31.17;25.49;100234.75;4215545;28;21090;-66
2022/06/26 08:13:37;;;;;;;4.38;2.33;;;;;;;31.24;25.14;100231.69;4197531;28;20225;-66
2022/06/26 08:16:04;;;;;;;3.45;2.47;;;;;;;31.15;25.25;100225.16;4195999;28;20233;-66
2022/06/26 08:18:31;;;;;;;8.30;2.35;;;;;;;31.54;24.87;100236.94;4204363;28;22345;-68
2022/06/26 08:22:00;;;;;;;5.20;2.45;;;;;;;31.64;24.66;100229.69;4222054;28;20236;-66
2022/06/26 08:23:45;;;;;;;5.80;2.70;;;;;;;31.22;25.84;100225.63;4209773;28;21750;-67
2022/06/26 08:26:11;;;;;;;6.78;2.70;;;;;;;31.38;25.13;100231.84;4208666;28;20239;-67
2022/06/26 08:28:39;;;;;;;7.25;2.50;;;;;;;30.90;25.41;100225.03;4209465;28;20324;-68
2022/06/26 08:31:06;;;;;;;5.38;2.05;;;;;;;30.02;26.88;100212.03;4194534;28;20246;-66
2022/06/26 08:33:32;;;;;;;3.75;2.30;;;;;;;29.98;26.89;100228.22;4205715;28;20457;-67
2022/06/26 08:35:59;;;;;;;4.05;2.50;;;;;;;30.29;25.88;100225.38;4190822;28;20736;-66
2022/06/26 08:38:26;;;;;;;3.55;1.92;;;;;;;30.28;26.16;100221.81;4220978;28;23873;-67
2022/06/26 08:40:53;;;;;;;4.40;2.40;;;;;;;30.51;26.54;100233.25;4197987;28;20234;-66
2022/06/26 08:43:21;;;;;;;5.40;2.53;;;;;;;30.62;26.08;100215.56;4214985;28;20239;-66
2022/06/26 08:45:50;;;;;;;6.50;2.42;;;;;;;30.43;25.92;100228.34;4213486;28;22614;-66
2022/06/26 08:48:18;;;;;;;6.72;2.30;;;;;;;30.22;26.05;100233.88;4183934;28;20275;-66
2022/06/26 08:50:45;;;;;;;6.80;2.75;;;;;;;30.53;26.01;100220.03;4214514;28;20676;-67
2022/06/26 08:53:14;;;;;;;2.95;2.00;;;;;;;30.68;26.07;100227.38;4200506;28;20260;-68
2022/06/26 08:55:42;;;;;;;5.10;2.17;;;;;;;30.95;25.97;100221.44;4200902;28;20243;-66
2022/06/26 08:58:09;;;;;;;4.65;2.53;;;;;;;30.95;25.11;100224.19;4199193;28;21862;-67
2022/06/26 09:00:36;;;;;;;3.53;2.10;;;;;;;30.08;25.85;100219.13;4193580;28;20437;-67
2022/06/26 09:03:03;;;;;;;8.05;2.50;;;;;;;30.19;25.81;100220.72;4214620;28;20433;-66
2022/06/26 09:05:29;;;;;;;4.13;2.23;;;;;;;30.17;25.66;100242.13;4198736;28;20243;-66
2022/06/26 09:07:58;;;;;;;4.63;2.17;;;;;;;29.68;26.16;100215.41;4205685;28;20335;-67
2022/06/26 09:10:28;;;;;;;8.30;2.50;;;;;;;29.56;27.31;100214.84;4205804;28;20247;-66
2022/06/26 09:12:57;;;;;;;5.63;2.80;;;;;;;29.45;27.45;100214.03;4204638;28;20319;-66
2022/06/26 09:15:24;;;;;;;5.20;2.50;;;;;;;29.40;28.11;100214.84;4204456;28;20234;-66
2022/06/26 09:18:01;;;;;;;3.25;2.47;;;;;;;29.37;28.31;100209.13;4204003;28;20354;-64
2022/06/26 09:20:54;;;;;;;5.90;2.75;;;;;;;29.71;27.39;100217.56;4210133;28;20237;-68
2022/06/26 09:23:22;;;;;;;4.10;2.47;;;;;;;29.79;27.31;100219.75;4201461;28;20271;-66
2022/06/26 09:25:54;;;;;;;5.13;2.75;;;;;;;29.37;27.31;100229.13;4212846;28;22015;-66
2022/06/26 09:28:23;;;;;;;2.88;2.40;;;;;;;29.14;27.68;100221.44;4197817;28;20228;-66
2022/06/26 09:30:56;;;;;;;5.55;2.30;;;;;;;28.86;27.91;100204.41;4200484;28;21127;-67
2022/06/26 09:33:24;;;;;;;7.00;2.28;;;;;;;28.94;27.85;100205.78;4202062;28;20380;-65
2022/06/26 09:35:52;;;;;;;4.53;2.72;;;;;;;29.09;28.04;100218.72;4206690;28;20236;-67
2022/06/26 09:38:23;;;;;;;6.00;2.33;;;;;;;29.18;27.43;100214.34;4210513;28;20324;-66
2022/06/26 09:41:16;;;;;;;5.13;2.10;;;;;;;29.24;27.19;100219.53;4209247;28;20233;-66
2022/06/26 09:43:44;;;;;;;6.60;2.45;;;;;;;29.21;26.62;100213.78;4214092;28;20578;-66
2022/06/26 09:46:13;;;;;;;3.50;2.27;;;;;;;29.14;26.77;100229.66;4176545;28;20234;-67
2022/06/26 09:48:41;;;;;;;3.75;2.15;;;;;;;29.29;26.80;100218.72;4212812;28;20466;-65
2022/06/26 09:51:10;;;;;;;3.22;2.13;;;;;;;29.52;27.02;100213.75;4206787;28;20360;-67
2022/06/26 09:53:38;;;;;;;6.55;2.03;;;;;;;29.52;25.78;100222.78;4198854;28;20562;-65
2022/06/26 09:56:06;;;;;;;4.82;2.40;;;;;;;29.31;26.64;100223.91;4186930;28;20295;-66
2022/06/26 09:58:33;;;;;;;5.22;2.42;;;;;;;29.08;27.84;100217.91;4219616;28;21716;-65
2022/06/26 10:06:32;;;;;;;4.90;2.50;;;;;;;29.21;27.74;100206.38;4218401;28;20239;-67
2022/06/26 10:09:06;;;;;;;5.10;2.40;;;;;;;29.16;27.05;100211.03;4225388;28;20560;-64
2022/06/26 10:11:38;;;;;;;3.70;2.10;;;;;;;29.20;27.20;100206.66;4213329;28;20236;-67
2022/06/26 10:14:22;;;;;;;6.38;2.60;;;;;;;29.19;27.14;100205.00;4212938;28;20764;-66
2022/06/26 10:17:00;;;;;;;4.53;2.20;;;;;;;29.26;26.71;100194.59;4211519;28;21036;-66
2022/06/26 10:19:45;;;;;;;4.90;2.23;;;;;;;29.37;26.31;100198.16;4208848;28;20298;-66
2022/06/26 10:22:13;;;;;;;4.05;2.45;;;;;;;29.60;27.24;100196.75;4213136;28;20372;-67
2022/06/26 10:24:49;;;;;;;6.60;2.37;;;;;;;29.76;27.38;100203.88;4201664;28;20725;-63
2022/06/26 10:27:21;;;;;;;5.22;2.17;;;;;;;29.42;27.41;100206.38;4217314;28;20240;-64
2022/06/26 10:29:48;;;;;;;4.32;2.40;;;;;;;29.68;25.34;100198.94;4246896;28;20232;-66
2022/06/26 10:32:22;;;;;;;9.65;2.40;;;;;;;29.84;25.11;100188.75;4212152;28;20243;-66
2022/06/26 10:34:55;;;;;;;4.55;2.20;;;;;;;29.81;25.77;100192.06;4212974;28;20820;-66
2022/06/26 10:37:22;;;;;;;4.28;2.17;;;;;;;29.94;25.27;100202.41;4209371;28;20237;-65
2022/06/26 10:39:51;;;;;;;6.25;2.40;;;;;;;30.04;25.36;100207.03;4228591;28;20291;-65
2022/06/26 10:45:20;;;;;;;5.78;2.50;;;;;;;30.28;24.95;100201.78;4218560;28;21367;-64
2022/06/26 10:47:55;;;;;;;3.20;1.88;;;;;;;29.69;25.62;100181.41;4228165;28;22362;-67
2022/06/26 10:50:36;;;;;;;8.07;2.10;;;;;;;29.39;26.73;100190.47;4224239;28;20272;-66
2022/06/26 10:53:22;;;;;;;4.53;2.20;;;;;;;29.44;26.04;100194.03;4233481;28;20311;-72
2022/06/26 10:56:08;;;;;;;6.20;2.17;;;;;;;29.32;26.77;100196.22;4234574;28;20244;-67
2022/06/26 10:58:37;;;;;;;4.82;2.72;;;;;;;29.43;26.18;100186.91;4222105;28;21662;-66
2022/06/26 11:01:06;;;;;;;3.88;1.90;;;;;;;29.76;26.27;100200.28;4198233;28;21169;-65
2022/06/26 11:03:34;;;;;;;5.97;2.25;;;;;;;29.81;25.88;100195.63;4217544;28;20241;-73
2022/06/26 11:06:04;;;;;;;7.60;2.60;;;;;;;29.80;25.87;100196.69;4226135;28;20248;-67
2022/06/26 11:08:33;;;;;;;3.33;2.10;;;;;;;29.86;25.86;100190.09;4191780;28;21855;-66
2022/06/26 11:11:05;;;;;;;9.95;2.38;;;;;;;29.92;26.14;100188.16;4195256;28;21125;-67
2022/06/26 11:13:34;;;;;;;6.03;2.17;;;;;;;30.01;25.43;100191.97;4215560;28;20263;-67
2022/06/26 11:16:02;;;;;;;3.72;2.05;;;;;;;29.96;26.15;100185.69;4216725;28;20233;-65
2022/06/26 11:18:35;;;;;;;5.25;2.05;;;;;;;29.97;25.26;100179.09;4199540;28;20460;-64
2022/06/26 11:21:03;;;;;;;5.30;2.22;;;;;;;29.96;25.87;100175.53;4198120;28;20677;-67
2022/06/26 11:23:35;;;;;;;3.83;2.38;;;;;;;29.95;26.25;100182.13;4219827;28;20233;-63
2022/06/26 11:26:07;;;;;;;4.18;2.30;;;;;;;29.91;26.30;100182.97;4198959;28;20354;-65
2022/06/26 11:28:42;;;;;;;4.50;2.50;;;;;;;29.87;26.30;100186.25;4198340;28;20528;-65
2022/06/26 11:31:15;;;;;;;7.47;2.00;;;;;;;29.76;27.02;100181.94;4198724;28;20572;-66
2022/06/26 11:33:42;;;;;;;3.78;2.30;;;;;;;30.00;26.23;100173.06;4219837;28;20998;-65
2022/06/26 11:36:14;;;;;;;3.45;1.80;;;;;;;30.29;25.63;100178.69;4215521;28;20464;-67
2022/06/26 11:38:54;;;;;;;3.57;2.30;;;;;;;30.23;25.18;100183.38;4216989;28;20481;-67
2022/06/26 11:41:22;;;;;;;5.93;2.70;;;;;;;30.20;25.82;100183.09;4226692;28;20697;-64
2022/06/26 11:43:56;;;;;;;5.25;2.50;;;;;;;30.17;25.83;100179.00;4202825;28;20346;-68
2022/06/26 11:46:23;;;;;;;9.05;2.38;;;;;;;30.24;25.65;100176.78;4217738;28;20232;-64